createdAt,value
2022-08-26T00:01:56.861Z,4.20
2022-08-26T00:04:25.663Z,4.53
2022-08-26T00:06:54.692Z,3.00
2022-08-26T00:09:23.179Z,3.43
2022-08-26T00:11:53.607Z,4.87
2022-08-26T00:14:21.191Z,3.40
2022-08-26T00:16:49.039Z,2.50
2022-08-26T00:19:18.661Z,1.90
2022-08-26T00:21:48.823Z,0.90
2022-08-26T00:24:18.530Z,2.67
2022-08-26T00:26:46.122Z,1.00
2022-08-26T00:29:14.241Z,0.90
2022-08-26T00:31:42.469Z,0.90
2022-08-26T00:34:12.296Z,0.80
2022-08-26T00:36:40.757Z,1.23
2022-08-26T00:39:08.440Z,0.90
2022-08-26T00:41:38.121Z,2.90
2022-08-26T00:44:05.828Z,4.00
2022-08-26T00:46:37.262Z,5.50
2022-08-26T00:49:16.696Z,5.80
2022-08-26T00:51:51.849Z,0.80
2022-08-26T00:54:21.777Z,2.60
2022-08-26T00:57:16.391Z,2.53
2022-08-26T00:59:47.889Z,0.90
2022-08-26T01:02:20.745Z,1.00
2022-08-26T01:04:49.723Z,3.10
2022-08-26T01:07:24.734Z,3.50
2022-08-26T01:09:52.022Z,6.97
2022-08-26T01:12:21.982Z,2.33
2022-08-26T01:14:50.036Z,2.97
2022-08-26T01:17:17.448Z,1.03
2022-08-26T01:19:47.994Z,0.90
2022-08-26T01:22:20.016Z,2.97
2022-08-26T01:24:48.651Z,1.27
2022-08-26T01:27:19.746Z,0.90
2022-08-26T01:29:48.992Z,0.80
2022-08-26T01:32:20.362Z,0.87
2022-08-26T01:34:48.377Z,0.80
2022-08-26T01:37:19.020Z,0.90
2022-08-26T01:39:49.510Z,1.07
2022-08-26T01:42:17.735Z,1.20
2022-08-26T01:44:58.773Z,1.00
2022-08-26T01:47:27.788Z,5.60
2022-08-26T01:49:59.062Z,7.23
2022-08-26T01:52:28.802Z,5.67
2022-08-26T01:54:56.774Z,8.67
2022-08-26T01:57:24.534Z,2.27
2022-08-26T01:59:54.648Z,5.43
2022-08-26T02:02:22.586Z,4.57
2022-08-26T02:04:55.027Z,5.70
2022-08-26T02:07:22.656Z,4.63
2022-08-26T02:09:54.142Z,3.20
2022-08-26T02:12:21.817Z,3.77
2022-08-26T02:14:53.506Z,2.53
2022-08-26T02:17:23.748Z,1.97
2022-08-26T02:19:51.296Z,2.10
2022-08-26T02:22:20.814Z,2.03
2022-08-26T02:24:57.023Z,1.10
2022-08-26T02:27:32.419Z,4.57
2022-08-26T02:30:33.131Z,6.83
2022-08-26T02:33:04.039Z,6.93
2022-08-26T02:35:33.214Z,6.10
2022-08-26T02:38:00.901Z,8.63
2022-08-26T02:40:31.284Z,12.97
2022-08-26T02:42:58.762Z,7.93
2022-08-26T02:45:29.407Z,8.10
2022-08-26T02:47:58.264Z,7.20
2022-08-26T02:50:27.747Z,6.70
2022-08-26T02:52:54.868Z,8.03
2022-08-26T02:55:22.491Z,4.90
2022-08-26T02:57:52.582Z,7.30
2022-08-26T03:00:19.978Z,2.17
2022-08-26T03:02:47.687Z,1.17
2022-08-26T03:05:18.150Z,0.90
2022-08-26T03:07:45.850Z,1.17
2022-08-26T03:10:13.363Z,1.00
2022-08-26T03:12:42.427Z,1.20
2022-08-26T03:15:15.866Z,0.93
2022-08-26T03:17:50.297Z,0.97
2022-08-26T03:20:18.382Z,1.03
2022-08-26T03:22:46.913Z,1.10
2022-08-26T03:25:17.106Z,0.90
2022-08-26T03:27:45.114Z,0.97
2022-08-26T03:30:32.861Z,1.10
2022-08-26T03:33:00.880Z,7.03
2022-08-26T03:35:28.224Z,9.10
2022-08-26T03:37:56.290Z,7.77
2022-08-26T03:40:24.830Z,3.20
2022-08-26T03:42:56.538Z,8.70
2022-08-26T03:45:23.828Z,2.80
2022-08-26T03:47:52.258Z,8.03
2022-08-26T03:50:22.702Z,1.80
2022-08-26T03:52:52.287Z,2.33
2022-08-26T03:55:21.024Z,2.63
2022-08-26T03:57:51.295Z,2.07
2022-08-26T04:00:19.077Z,1.87
2022-08-26T04:02:48.960Z,0.87
2022-08-26T04:05:18.204Z,0.90
2022-08-26T04:07:47.152Z,1.00
2022-08-26T04:10:20.230Z,1.50
2022-08-26T04:12:48.514Z,0.90
2022-08-26T04:15:17.855Z,0.93
2022-08-26T04:17:45.426Z,1.00
2022-08-26T04:20:16.278Z,1.17
2022-08-26T04:22:43.662Z,1.10
2022-08-26T04:25:11.603Z,0.97
2022-08-26T04:27:39.065Z,1.17
2022-08-26T04:30:09.627Z,1.83
2022-08-26T04:32:37.828Z,1.97
2022-08-26T04:35:06.250Z,5.37
2022-08-26T04:37:33.798Z,7.20
2022-08-26T04:40:01.498Z,8.83
2022-08-26T04:42:30.075Z,6.83
2022-08-26T04:44:57.119Z,8.77
2022-08-26T04:47:29.149Z,3.83
2022-08-26T04:50:02.856Z,6.77
2022-08-26T04:52:30.348Z,7.90
2022-08-26T04:54:58.160Z,9.33
2022-08-26T04:57:25.378Z,8.20
2022-08-26T04:59:53.671Z,13.57
2022-08-26T05:02:21.388Z,2.00
2022-08-26T05:04:48.563Z,2.07
2022-08-26T05:07:19.114Z,2.40
2022-08-26T05:09:46.730Z,1.40
2022-08-26T05:12:14.603Z,1.00
2022-08-26T05:14:43.701Z,1.33
2022-08-26T05:17:10.883Z,1.03
2022-08-26T05:19:43.126Z,2.23
2022-08-26T05:22:10.405Z,0.90
2022-08-26T05:24:41.446Z,1.00
2022-08-26T05:27:11.689Z,1.17
2022-08-26T05:29:40.250Z,1.07
2022-08-26T05:32:07.896Z,1.93
2022-08-26T05:34:35.019Z,5.27
2022-08-26T05:37:02.121Z,8.37
2022-08-26T05:39:29.813Z,6.63
2022-08-26T05:41:58.342Z,8.83
2022-08-26T05:44:25.706Z,8.47
2022-08-26T05:46:52.967Z,4.50
2022-08-26T05:49:20.516Z,2.10
2022-08-26T05:51:53.810Z,3.20
2022-08-26T05:54:25.028Z,3.47
2022-08-26T05:56:52.624Z,7.17
2022-08-26T05:59:24.289Z,3.00
2022-08-26T06:01:52.372Z,7.50
2022-08-26T06:04:20.193Z,3.30
2022-08-26T06:06:47.872Z,1.10
2022-08-26T06:09:18.232Z,2.40
2022-08-26T06:11:46.955Z,1.37
2022-08-26T06:14:14.903Z,0.80
2022-08-26T06:16:46.050Z,1.20
2022-08-26T06:19:21.047Z,1.00
2022-08-26T06:21:54.160Z,2.67
2022-08-26T06:24:41.332Z,6.77
2022-08-26T06:27:13.854Z,1.13
2022-08-26T06:29:42.762Z,0.93
2022-08-26T06:32:09.971Z,1.10
2022-08-26T06:34:37.392Z,1.97
2022-08-26T06:37:06.382Z,6.53
2022-08-26T06:39:34.242Z,6.53
2022-08-26T06:42:02.670Z,6.63
2022-08-26T06:44:30.207Z,6.20
2022-08-26T06:46:57.367Z,7.13
2022-08-26T06:49:25.615Z,4.10
2022-08-26T06:51:55.103Z,7.73
2022-08-26T06:54:22.538Z,5.57
2022-08-26T06:56:50.058Z,2.53
2022-08-26T06:59:18.046Z,0.90
2022-08-26T07:01:46.055Z,1.00
2022-08-26T07:04:15.934Z,0.87
2022-08-26T07:06:52.959Z,2.80
2022-08-26T07:09:22.761Z,2.53
2022-08-26T07:11:51.593Z,3.10
2022-08-26T07:14:21.550Z,2.33
2022-08-26T07:16:50.079Z,2.67
2022-08-26T07:19:31.185Z,1.80
2022-08-26T07:22:03.903Z,7.50
2022-08-26T07:24:36.393Z,6.40
2022-08-26T07:27:06.782Z,6.43
2022-08-26T07:29:36.138Z,3.63
2022-08-26T07:32:04.699Z,6.13
2022-08-26T07:34:35.047Z,5.80
2022-08-26T07:37:02.210Z,6.57
2022-08-26T07:39:31.423Z,5.73
2022-08-26T07:42:07.459Z,6.07
2022-08-26T07:44:36.663Z,5.33
2022-08-26T07:47:03.900Z,6.37
2022-08-26T07:49:38.397Z,1.67
2022-08-26T07:52:06.179Z,4.40
2022-08-26T07:54:33.547Z,6.30
2022-08-26T07:57:01.748Z,5.77
2022-08-26T07:59:35.915Z,4.57
2022-08-26T08:02:03.181Z,5.43
2022-08-26T08:04:30.552Z,8.43
2022-08-26T08:06:58.418Z,7.73
2022-08-26T08:09:26.276Z,5.50
2022-08-26T08:11:54.749Z,3.33
2022-08-26T08:14:22.195Z,4.97
2022-08-26T08:16:51.242Z,2.20
2022-08-26T08:19:23.905Z,5.53
2022-08-26T08:21:54.885Z,5.23
2022-08-26T08:24:22.246Z,4.87
2022-08-26T08:26:50.759Z,1.70
2022-08-26T08:29:18.156Z,1.73
2022-08-26T08:31:58.282Z,1.00
2022-08-26T08:34:28.493Z,5.30
2022-08-26T08:36:57.677Z,5.97
2022-08-26T08:39:25.573Z,6.10
2022-08-26T08:42:23.502Z,3.80
2022-08-26T08:44:53.195Z,1.80
2022-08-26T08:47:30.880Z,1.90
2022-08-26T08:50:12.068Z,6.43
2022-08-26T08:52:40.498Z,1.00
2022-08-26T08:55:11.075Z,1.83
2022-08-26T08:58:02.439Z,0.90
2022-08-26T09:00:39.701Z,9.23
2022-08-26T09:03:22.911Z,1.57
2022-08-26T09:05:52.064Z,2.30
2022-08-26T09:08:27.710Z,2.10
2022-08-26T09:10:58.239Z,5.23
2022-08-26T09:13:27.275Z,5.43
2022-08-26T09:16:01.102Z,4.70
2022-08-26T09:18:49.502Z,6.03
2022-08-26T09:21:19.067Z,0.80
2022-08-26T09:23:49.680Z,2.53
2022-08-26T09:26:44.160Z,0.93
2022-08-26T09:29:34.559Z,0.90
2022-08-26T09:32:24.523Z,5.60
2022-08-26T09:35:08.040Z,3.87
2022-08-26T09:37:39.332Z,4.50
2022-08-26T09:40:27.082Z,3.10
2022-08-26T09:43:22.677Z,3.00
2022-08-26T09:45:59.491Z,1.67
2022-08-26T09:48:36.147Z,5.43
2022-08-26T09:51:07.159Z,5.70
2022-08-26T09:53:37.814Z,5.13
2022-08-26T09:56:27.749Z,4.67
2022-08-26T09:58:55.840Z,5.23
2022-08-26T10:01:30.088Z,3.13
2022-08-26T10:04:09.917Z,8.53
2022-08-26T10:06:55.874Z,1.53
2022-08-26T10:09:24.338Z,3.33
2022-08-26T10:11:54.643Z,2.60
2022-08-26T10:14:34.989Z,3.30
2022-08-26T10:17:30.719Z,5.33
2022-08-26T10:20:06.583Z,6.20
2022-08-26T10:23:03.520Z,1.97
2022-08-26T10:26:05.512Z,4.77
2022-08-26T10:28:40.886Z,4.70
2022-08-26T10:31:46.494Z,1.53
2022-08-26T10:34:17.262Z,1.00
2022-08-26T10:37:14.918Z,0.90
2022-08-26T10:39:59.311Z,0.70
2022-08-26T10:42:50.823Z,4.57
2022-08-26T10:45:22.142Z,0.80
2022-08-26T10:48:12.814Z,2.17
2022-08-26T10:50:42.510Z,0.80
2022-08-26T10:53:27.709Z,0.80
2022-08-26T10:56:19.002Z,5.23
2022-08-26T10:59:22.125Z,0.90
2022-08-26T11:01:58.383Z,1.57
2022-08-26T11:04:38.849Z,4.63
2022-08-26T11:07:45.146Z,3.10
2022-08-26T11:10:42.130Z,1.00
2022-08-26T11:13:09.547Z,0.90
2022-08-26T11:15:39.940Z,3.47
2022-08-26T11:18:09.950Z,1.87
2022-08-26T11:20:47.356Z,2.07
2022-08-26T11:23:23.808Z,0.70
2022-08-26T11:25:57.513Z,1.37
2022-08-26T11:28:48.701Z,2.90
2022-08-26T11:31:25.467Z,0.80
2022-08-26T11:34:00.237Z,3.57
2022-08-26T11:36:39.885Z,4.30
2022-08-26T11:39:29.400Z,1.77
2022-08-26T11:42:22.945Z,4.40
2022-08-26T11:44:50.996Z,1.60
2022-08-26T11:47:27.355Z,0.80
2022-08-26T11:50:18.189Z,4.30
2022-08-26T11:52:57.344Z,0.80
2022-08-26T11:55:25.112Z,2.33
2022-08-26T11:57:55.075Z,4.27
2022-08-26T12:00:26.142Z,3.17
2022-08-26T12:02:53.835Z,2.97
2022-08-26T12:05:31.163Z,1.57
2022-08-26T12:08:04.554Z,5.50
2022-08-26T12:10:34.811Z,4.40
2022-08-26T12:13:07.338Z,4.90
2022-08-26T12:15:35.815Z,4.03
2022-08-26T12:18:28.856Z,5.20
2022-08-26T12:21:05.651Z,4.73
2022-08-26T12:23:36.499Z,4.33
2022-08-26T12:26:23.619Z,4.80
2022-08-26T12:29:27.056Z,1.97
2022-08-26T12:32:25.508Z,2.93
2022-08-26T12:34:52.606Z,4.20
2022-08-26T12:37:20.243Z,1.67
2022-08-26T12:39:49.305Z,0.90
2022-08-26T12:42:19.885Z,0.97
2022-08-26T12:45:06.728Z,0.70
2022-08-26T12:47:44.509Z,4.63
2022-08-26T12:50:22.257Z,1.00
2022-08-26T12:53:09.940Z,1.90
2022-08-26T12:55:47.765Z,2.10
2022-08-26T12:58:31.598Z,0.80
2022-08-26T13:01:05.010Z,6.43
2022-08-26T13:03:35.332Z,4.67
2022-08-26T13:06:30.221Z,4.77
2022-08-26T13:09:29.740Z,4.43
2022-08-26T13:11:58.088Z,4.40
2022-08-26T13:14:25.255Z,4.10
2022-08-26T13:16:53.317Z,3.80
2022-08-26T13:19:23.566Z,1.60
2022-08-26T13:21:54.062Z,1.80
2022-08-26T13:24:27.260Z,1.33
2022-08-26T13:26:54.386Z,2.63
2022-08-26T13:29:21.539Z,1.40
2022-08-26T13:31:49.491Z,1.07
2022-08-26T13:34:19.620Z,0.83
2022-08-26T13:36:52.661Z,1.00
2022-08-26T13:39:20.108Z,1.63
2022-08-26T13:41:47.705Z,0.80
2022-08-26T13:44:15.412Z,0.90
2022-08-26T13:46:42.679Z,1.17
2022-08-26T13:49:10.610Z,0.90
2022-08-26T13:51:38.075Z,1.37
2022-08-26T13:54:05.675Z,4.47
2022-08-26T13:56:33.484Z,4.20
2022-08-26T13:59:01.470Z,4.33
2022-08-26T14:01:32.868Z,4.60
2022-08-26T14:04:00.022Z,4.50
2022-08-26T14:06:27.231Z,4.00
2022-08-26T14:08:54.853Z,2.30
2022-08-26T14:11:22.593Z,2.47
2022-08-26T14:13:50.386Z,1.37
2022-08-26T14:16:27.485Z,0.90
2022-08-26T14:18:54.901Z,2.27
2022-08-26T14:21:22.166Z,2.13
2022-08-26T14:23:49.405Z,1.47
2022-08-26T14:26:29.102Z,0.97
2022-08-26T14:29:00.515Z,4.00
2022-08-26T14:31:29.615Z,4.20
2022-08-26T14:34:03.292Z,3.63
2022-08-26T14:36:34.270Z,3.83
2022-08-26T14:39:07.045Z,4.40
2022-08-26T14:41:35.619Z,3.53
2022-08-26T14:44:06.302Z,3.57
2022-08-26T14:46:38.998Z,3.90
2022-08-26T14:49:09.902Z,3.17
2022-08-26T14:51:38.307Z,1.63
2022-08-26T14:54:15.343Z,3.73
2022-08-26T14:57:06.877Z,0.70
2022-08-26T14:59:39.586Z,3.87
2022-08-26T15:02:08.679Z,3.30
2022-08-26T15:04:36.012Z,3.43
2022-08-26T15:07:04.268Z,3.80
2022-08-26T15:09:33.628Z,3.90
2022-08-26T15:12:01.147Z,4.07
2022-08-26T15:14:32.838Z,3.73
2022-08-26T15:17:00.478Z,3.83
2022-08-26T15:19:27.958Z,4.30
2022-08-26T15:21:55.193Z,2.30
2022-08-26T15:24:24.376Z,2.47
2022-08-26T15:26:51.834Z,1.57
2022-08-26T15:29:19.551Z,1.10
2022-08-26T15:31:47.832Z,0.77
2022-08-26T15:34:16.925Z,1.90
2022-08-26T15:36:46.061Z,2.03
2022-08-26T15:39:14.102Z,0.80
2022-08-26T15:41:41.530Z,0.80
2022-08-26T15:44:09.617Z,1.10
2022-08-26T15:46:38.377Z,2.53
2022-08-26T15:49:06.002Z,4.10
2022-08-26T15:51:36.016Z,4.30
2022-08-26T15:54:14.191Z,1.00
2022-08-26T15:56:43.401Z,1.00
2022-08-26T15:59:11.858Z,0.90
2022-08-26T16:01:39.758Z,0.90
2022-08-26T16:04:07.169Z,2.30
2022-08-26T16:06:36.380Z,4.20
2022-08-26T16:09:04.594Z,4.80
2022-08-26T16:11:32.019Z,4.60
2022-08-26T16:13:59.170Z,5.90
2022-08-26T16:16:26.726Z,4.73
2022-08-26T16:18:54.455Z,3.33
2022-08-26T16:21:24.558Z,2.47
2022-08-26T16:23:52.641Z,1.37
2022-08-26T16:26:23.083Z,1.73
2022-08-26T16:28:50.365Z,1.60
2022-08-26T16:31:18.112Z,0.83
2022-08-26T16:33:45.689Z,0.80
2022-08-26T16:36:14.285Z,0.83
2022-08-26T16:38:41.939Z,0.87
2022-08-26T16:41:09.117Z,1.00
2022-08-26T16:43:37.448Z,3.63
2022-08-26T16:46:07.215Z,5.03
2022-08-26T16:48:35.451Z,5.27
2022-08-26T16:51:02.645Z,5.60
2022-08-26T16:53:30.017Z,5.23
2022-08-26T16:55:57.184Z,5.83
2022-08-26T16:58:24.555Z,3.27
2022-08-26T17:00:51.651Z,1.60
2022-08-26T17:03:18.965Z,0.90
2022-08-26T17:05:46.338Z,0.80
2022-08-26T17:08:24.412Z,1.10
2022-08-26T17:10:55.982Z,8.97
2022-08-26T17:13:35.221Z,4.60
2022-08-26T17:16:05.553Z,6.03
2022-08-26T17:18:33.994Z,6.73
2022-08-26T17:21:04.250Z,6.03
2022-08-26T17:23:31.970Z,5.90
2022-08-26T17:25:59.141Z,8.90
2022-08-26T17:28:26.375Z,7.93
2022-08-26T17:30:55.343Z,4.80
2022-08-26T17:33:24.598Z,3.87
2022-08-26T17:35:53.246Z,3.30
2022-08-26T17:38:21.425Z,2.60
2022-08-26T17:40:52.031Z,1.03
2022-08-26T17:43:19.529Z,1.40
2022-08-26T17:45:48.114Z,1.00
2022-08-26T17:48:16.708Z,4.50
2022-08-26T17:50:49.421Z,1.00
2022-08-26T17:53:19.220Z,0.90
2022-08-26T17:55:48.237Z,1.00
2022-08-26T17:58:17.388Z,1.00
2022-08-26T18:00:47.799Z,1.10
2022-08-26T18:03:15.507Z,0.90
2022-08-26T18:05:43.395Z,4.43
2022-08-26T18:08:10.612Z,1.13
2022-08-26T18:10:37.782Z,2.40
2022-08-26T18:13:05.012Z,6.60
2022-08-26T18:15:32.254Z,5.90
2022-08-26T18:17:59.482Z,7.60
2022-08-26T18:20:26.923Z,6.13
2022-08-26T18:22:54.694Z,4.33
2022-08-26T18:25:22.491Z,6.53
2022-08-26T18:27:49.633Z,2.27
2022-08-26T18:30:23.301Z,0.90
2022-08-26T18:32:52.307Z,1.77
2022-08-26T18:35:21.489Z,1.57
2022-08-26T18:37:48.803Z,0.80
2022-08-26T18:40:17.034Z,1.00
2022-08-26T18:42:44.498Z,1.00
2022-08-26T18:45:16.153Z,0.90
2022-08-26T18:47:44.342Z,1.30
2022-08-26T18:50:11.969Z,1.03
2022-08-26T18:52:39.844Z,1.40
2022-08-26T18:55:07.441Z,3.63
2022-08-26T18:57:34.845Z,6.23
2022-08-26T19:00:04.204Z,8.20
2022-08-26T19:02:31.874Z,6.43
2022-08-26T19:04:59.192Z,8.43
2022-08-26T19:07:26.600Z,5.30
2022-08-26T19:09:56.183Z,4.83
2022-08-26T19:12:23.884Z,4.37
2022-08-26T19:14:54.243Z,8.60
2022-08-26T19:17:22.547Z,2.77
2022-08-26T19:19:50.368Z,1.83
2022-08-26T19:22:17.609Z,1.00
2022-08-26T19:24:44.788Z,1.63
2022-08-26T19:27:14.866Z,1.00
2022-08-26T19:29:45.853Z,0.90
2022-08-26T19:32:13.344Z,1.20
2022-08-26T19:34:40.876Z,0.90
2022-08-26T19:37:08.043Z,2.80
2022-08-26T19:39:36.226Z,6.20
2022-08-26T19:42:03.449Z,6.73
2022-08-26T19:44:49.560Z,5.93
2022-08-26T19:47:16.880Z,1.07
2022-08-26T19:49:44.056Z,1.00
2022-08-26T19:52:11.643Z,0.90
2022-08-26T19:54:39.731Z,2.70
2022-08-26T19:57:06.824Z,4.97
2022-08-26T19:59:34.466Z,6.10
2022-08-26T20:02:02.205Z,6.50
2022-08-26T20:04:31.987Z,8.00
2022-08-26T20:07:00.778Z,8.77
2022-08-26T20:09:29.396Z,5.40
2022-08-26T20:11:57.080Z,7.77
2022-08-26T20:14:25.365Z,4.00
2022-08-26T20:16:52.908Z,2.63
2022-08-26T20:19:38.977Z,2.07
2022-08-26T20:22:06.369Z,5.83
2022-08-26T20:24:34.684Z,6.33
2022-08-26T20:27:05.568Z,6.93
2022-08-26T20:29:35.044Z,6.10
2022-08-26T20:32:03.280Z,6.30
2022-08-26T20:34:30.794Z,5.97
2022-08-26T20:36:58.280Z,8.03
2022-08-26T20:39:29.167Z,4.53
2022-08-26T20:41:57.999Z,7.83
2022-08-26T20:44:25.626Z,4.00
2022-08-26T20:46:53.755Z,3.23
2022-08-26T20:49:21.061Z,2.40
2022-08-26T20:51:52.533Z,1.40
2022-08-26T20:54:26.219Z,1.67
2022-08-26T20:56:56.486Z,3.20
2022-08-26T20:59:24.638Z,4.67
2022-08-26T21:01:51.780Z,2.73
2022-08-26T21:04:21.827Z,1.00
2022-08-26T21:06:52.675Z,0.93
2022-08-26T21:09:23.615Z,1.80
2022-08-26T21:11:51.663Z,2.27
2022-08-26T21:14:20.672Z,1.10
2022-08-26T21:16:49.144Z,0.90
2022-08-26T21:19:18.549Z,0.90
2022-08-26T21:21:53.512Z,1.20
2022-08-26T21:24:22.903Z,1.37
2022-08-26T21:26:51.187Z,2.77
2022-08-26T21:29:19.152Z,0.80
2022-08-26T21:31:54.288Z,1.00
2022-08-26T21:34:22.598Z,2.03
2022-08-26T21:36:50.645Z,2.13
2022-08-26T21:39:22.636Z,1.57
2022-08-26T21:41:50.395Z,2.30
2022-08-26T21:44:18.561Z,0.97
2022-08-26T21:46:50.928Z,1.43
2022-08-26T21:49:20.091Z,1.20
2022-08-26T21:51:55.266Z,1.30
2022-08-26T21:54:23.899Z,1.97
2022-08-26T21:56:51.935Z,2.20
2022-08-26T21:59:22.168Z,0.90
2022-08-26T22:01:49.888Z,1.27
2022-08-26T22:04:18.550Z,0.93
2022-08-26T22:06:48.363Z,0.80
2022-08-26T22:09:19.016Z,1.00
2022-08-26T22:11:51.998Z,0.80
2022-08-26T22:14:23.951Z,1.67
2022-08-26T22:16:57.682Z,6.00
2022-08-26T22:19:25.362Z,5.10
2022-08-26T22:21:54.468Z,3.20
2022-08-26T22:24:24.304Z,1.93
2022-08-26T22:26:53.212Z,2.30
2022-08-26T22:29:24.550Z,1.53
2022-08-26T22:31:51.817Z,2.47
2022-08-26T22:34:21.063Z,1.27
2022-08-26T22:36:50.489Z,0.80
2022-08-26T22:39:23.590Z,1.90
2022-08-26T22:41:54.078Z,1.73
2022-08-26T22:44:23.952Z,1.83
2022-08-26T22:46:54.800Z,1.50
2022-08-26T22:49:22.134Z,2.27
2022-08-26T22:51:50.129Z,1.40
2022-08-26T22:54:17.823Z,1.00
2022-08-26T22:56:45.793Z,0.93
2022-08-26T22:59:14.042Z,0.77
2022-08-26T23:01:42.677Z,0.90
2022-08-26T23:04:11.763Z,1.20
2022-08-26T23:06:40.855Z,2.60
2022-08-26T23:09:09.075Z,3.43
2022-08-26T23:11:36.476Z,6.17
2022-08-26T23:14:06.591Z,6.93
2022-08-26T23:16:39.524Z,7.13
2022-08-26T23:19:08.189Z,4.53
2022-08-26T23:21:35.878Z,6.23
2022-08-26T23:24:03.248Z,7.73
2022-08-26T23:26:30.597Z,6.23
2022-08-26T23:28:58.047Z,6.33
2022-08-26T23:31:25.742Z,3.60
2022-08-26T23:34:11.573Z,5.40
2022-08-26T23:36:39.376Z,1.80
2022-08-26T23:39:06.929Z,5.33
2022-08-26T23:41:35.858Z,10.63
2022-08-26T23:44:05.177Z,7.00
2022-08-26T23:46:36.018Z,6.23
2022-08-26T23:49:04.338Z,7.83
2022-08-26T23:51:50.520Z,6.23
2022-08-26T23:54:18.153Z,1.87
2022-08-26T23:56:46.317Z,1.00
2022-08-26T23:59:13.780Z,3.30
